createdAt,value
2023-05-02T00:00:47.123Z,9.47
2023-05-02T00:03:20.962Z,9.45
2023-05-02T00:05:52.044Z,9.45
2023-05-02T00:08:22.945Z,9.45
2023-05-02T00:10:51.821Z,9.45
2023-05-02T00:13:24.536Z,9.46
2023-05-02T00:15:54.958Z,9.45
2023-05-02T00:18:30.726Z,9.43
2023-05-02T00:21:01.640Z,9.42
2023-05-02T00:23:32.677Z,9.41
2023-05-02T00:26:01.670Z,9.41
2023-05-02T00:28:35.081Z,9.38
2023-05-02T00:31:06.299Z,9.35
2023-05-02T00:33:36.324Z,9.31
2023-05-02T00:36:14.128Z,9.28
2023-05-02T00:38:43.173Z,9.25
2023-05-02T00:41:14.066Z,9.23
2023-05-02T00:43:45.740Z,9.23
2023-05-02T00:46:16.403Z,9.22
2023-05-02T00:48:48.437Z,9.24
2023-05-02T00:51:20.174Z,9.23
2023-05-02T00:53:51.502Z,9.23
2023-05-02T00:56:22.037Z,9.23
2023-05-02T00:58:52.596Z,9.23
2023-05-02T01:01:46.138Z,9.23
2023-05-02T01:04:18.302Z,9.25
2023-05-02T01:07:11.945Z,9.27
2023-05-02T01:10:03.101Z,9.31
2023-05-02T01:12:45.459Z,9.34
2023-05-02T01:15:18.759Z,9.36
2023-05-02T01:17:50.097Z,9.38
2023-05-02T01:20:22.994Z,9.39
2023-05-02T01:22:55.234Z,9.40
2023-05-02T01:25:31.391Z,9.39
2023-05-02T01:28:16.731Z,9.38
2023-05-02T01:30:48.091Z,9.38
2023-05-02T01:33:18.290Z,9.39
2023-05-02T01:35:52.742Z,9.38
2023-05-02T01:38:24.992Z,9.37
2023-05-02T01:40:55.131Z,9.37
2023-05-02T01:43:27.135Z,9.36
2023-05-02T01:45:57.465Z,9.34
2023-05-02T01:48:29.319Z,9.32
2023-05-02T01:50:59.889Z,9.29
2023-05-02T01:53:31.392Z,9.25
2023-05-02T01:56:02.208Z,9.22
2023-05-02T01:58:33.503Z,9.19
2023-05-02T02:01:04.985Z,9.15
2023-05-02T02:03:35.947Z,9.11
2023-05-02T02:06:08.454Z,9.08
2023-05-02T02:08:37.674Z,9.05
2023-05-02T02:11:10.157Z,9.05
2023-05-02T02:13:45.492Z,9.02
2023-05-02T02:16:17.823Z,9.00
2023-05-02T02:18:48.737Z,8.98
2023-05-02T02:21:21.177Z,8.94
2023-05-02T02:23:52.342Z,8.91
2023-05-02T02:26:22.917Z,8.86
2023-05-02T02:28:52.281Z,8.81
2023-05-02T02:31:26.300Z,8.78
2023-05-02T02:33:56.240Z,8.75
2023-05-02T02:36:30.777Z,8.72
2023-05-02T02:39:13.669Z,8.72
2023-05-02T02:41:49.182Z,8.69
2023-05-02T02:44:27.714Z,8.66
2023-05-02T02:47:07.124Z,8.65
2023-05-02T02:49:38.702Z,8.63
2023-05-02T02:52:27.676Z,8.61
2023-05-02T02:55:15.949Z,8.57
2023-05-02T02:57:46.236Z,8.57
2023-05-02T03:00:26.910Z,8.60
2023-05-02T03:02:59.032Z,8.62
2023-05-02T03:05:29.688Z,8.61
2023-05-02T03:08:01.418Z,8.60
2023-05-02T03:10:30.054Z,8.59
2023-05-02T03:13:00.435Z,8.59
2023-05-02T03:15:44.828Z,8.58
2023-05-02T03:18:14.862Z,8.56
2023-05-02T03:20:44.018Z,8.55
2023-05-02T03:23:14.598Z,8.53
2023-05-02T03:25:45.385Z,8.51
2023-05-02T03:28:18.682Z,8.50
2023-05-02T03:30:50.718Z,8.50
2023-05-02T03:33:21.734Z,8.52
2023-05-02T03:35:51.838Z,8.53
2023-05-02T03:38:22.991Z,8.54
2023-05-02T03:40:52.164Z,8.57
2023-05-02T03:43:22.382Z,8.62
2023-05-02T03:45:52.477Z,8.65
2023-05-02T03:48:23.577Z,8.69
2023-05-02T03:50:54.445Z,8.74
2023-05-02T03:53:25.717Z,8.81
2023-05-02T03:55:55.985Z,8.89
2023-05-02T03:58:28.065Z,8.96
2023-05-02T04:00:57.673Z,9.03
2023-05-02T04:03:30.102Z,9.09
2023-05-02T04:06:02.221Z,9.16
2023-05-02T04:08:32.747Z,9.22
2023-05-02T04:11:02.067Z,9.27
2023-05-02T04:13:33.148Z,9.33
2023-05-02T04:16:03.005Z,9.39
2023-05-02T04:18:33.739Z,9.46
2023-05-02T04:21:04.255Z,9.53
2023-05-02T04:23:34.883Z,9.60
2023-05-02T04:26:05.262Z,9.68
2023-05-02T04:28:40.125Z,9.77
2023-05-02T04:31:12.451Z,9.86
2023-05-02T04:33:42.244Z,9.95
2023-05-02T04:36:15.891Z,10.04
2023-05-02T04:38:47.425Z,10.13
2023-05-02T04:41:20.760Z,10.22
2023-05-02T04:43:56.951Z,10.30
2023-05-02T04:46:27.284Z,10.36
2023-05-02T04:48:56.336Z,10.43
2023-05-02T04:51:26.208Z,10.47
2023-05-02T04:53:55.110Z,10.51
2023-05-02T04:56:26.164Z,10.53
2023-05-02T04:58:58.103Z,10.54
2023-05-02T05:01:29.671Z,10.57
2023-05-02T05:04:00.762Z,10.60
2023-05-02T05:06:32.642Z,10.64
2023-05-02T05:09:07.866Z,10.71
2023-05-02T05:11:40.059Z,10.77
2023-05-02T05:14:12.377Z,10.84
2023-05-02T05:16:44.325Z,10.91
2023-05-02T05:19:13.749Z,10.97
2023-05-02T05:21:45.337Z,11.04
2023-05-02T05:24:17.011Z,11.10
2023-05-02T05:26:47.935Z,11.13
2023-05-02T05:29:20.893Z,11.17
2023-05-02T05:31:50.965Z,11.24
2023-05-02T05:34:22.307Z,11.30
2023-05-02T05:36:54.006Z,11.39
2023-05-02T05:39:25.811Z,11.50
2023-05-02T05:41:59.039Z,11.61
2023-05-02T05:44:30.318Z,11.75
2023-05-02T05:47:01.684Z,11.87
2023-05-02T05:49:31.239Z,12.01
2023-05-02T05:52:03.234Z,12.12
2023-05-02T05:54:32.537Z,12.23
2023-05-02T05:57:04.152Z,12.34
2023-05-02T05:59:36.268Z,12.45
2023-05-02T06:02:06.430Z,12.57
2023-05-02T06:04:37.600Z,12.63
2023-05-02T06:07:27.216Z,12.67
2023-05-02T06:09:57.010Z,12.70
2023-05-02T06:12:27.589Z,12.79
2023-05-02T06:14:57.819Z,12.90
2023-05-02T06:17:27.554Z,13.04
2023-05-02T06:19:58.059Z,13.15
2023-05-02T06:22:32.577Z,13.23
2023-05-02T06:25:03.848Z,13.33
2023-05-02T06:27:34.870Z,13.47
2023-05-02T06:30:06.711Z,13.60
2023-05-02T06:32:36.682Z,13.70
2023-05-02T06:35:05.766Z,13.77
2023-05-02T06:37:37.252Z,13.83
2023-05-02T06:40:07.204Z,13.92
2023-05-02T06:42:37.655Z,14.04
2023-05-02T06:45:08.800Z,14.07
2023-05-02T06:47:38.514Z,14.11
2023-05-02T06:50:09.952Z,14.15
2023-05-02T06:52:41.417Z,14.18
2023-05-02T06:55:14.791Z,14.11
2023-05-02T06:57:44.870Z,13.99
2023-05-02T07:00:16.121Z,13.93
2023-05-02T07:02:47.786Z,13.93
2023-05-02T07:05:18.922Z,13.95
2023-05-02T07:07:48.761Z,13.99
2023-05-02T07:10:17.940Z,14.06
2023-05-02T07:12:49.789Z,14.15
2023-05-02T07:15:18.786Z,14.17
2023-05-02T07:17:50.918Z,14.16
2023-05-02T07:20:20.642Z,14.25
2023-05-02T07:22:50.444Z,14.40
2023-05-02T07:25:22.176Z,14.57
2023-05-02T07:27:58.464Z,14.76
2023-05-02T07:30:28.024Z,14.89
2023-05-02T07:33:01.571Z,14.97
2023-05-02T07:35:30.503Z,15.12
2023-05-02T07:38:01.296Z,15.28
2023-05-02T07:40:30.119Z,15.44
2023-05-02T07:43:00.646Z,15.59
2023-05-02T07:45:29.781Z,15.64
2023-05-02T07:48:02.423Z,15.62
2023-05-02T07:50:31.376Z,15.53
2023-05-02T07:53:00.830Z,15.48
2023-05-02T07:55:32.113Z,15.40
2023-05-02T07:58:01.862Z,15.31
2023-05-02T08:00:31.532Z,15.22
2023-05-02T08:03:01.080Z,15.22
2023-05-02T08:05:31.616Z,15.15
2023-05-02T08:08:04.474Z,15.04
2023-05-02T08:10:38.209Z,14.86
2023-05-02T08:13:09.086Z,14.70
2023-05-02T08:15:41.146Z,14.63
2023-05-02T08:18:12.774Z,14.61
2023-05-02T08:20:46.419Z,14.54
2023-05-02T08:23:16.460Z,14.42
2023-05-02T08:25:45.191Z,14.38
2023-05-02T08:28:15.831Z,14.31
2023-05-02T08:30:46.202Z,14.23
2023-05-02T08:33:17.347Z,14.16
2023-05-02T08:35:48.275Z,14.14
2023-05-02T08:38:17.018Z,14.10
2023-05-02T08:40:51.739Z,14.08
2023-05-02T08:43:21.660Z,14.05
2023-05-02T08:45:55.023Z,14.02
2023-05-02T08:48:25.503Z,13.99
2023-05-02T08:50:57.965Z,14.02
2023-05-02T08:53:28.581Z,14.04
2023-05-02T08:55:57.534Z,14.11
2023-05-02T08:58:28.196Z,14.27
2023-05-02T09:01:00.764Z,14.49
2023-05-02T09:03:37.669Z,14.73
2023-05-02T09:06:15.083Z,14.86
2023-05-02T09:08:46.961Z,14.95
2023-05-02T09:11:18.091Z,14.84
2023-05-02T09:13:47.222Z,14.70
2023-05-02T09:16:18.476Z,14.57
2023-05-02T09:18:49.880Z,14.44
2023-05-02T09:21:21.276Z,14.41
2023-05-02T09:23:51.474Z,14.41
2023-05-02T09:26:21.722Z,14.28
2023-05-02T09:28:54.612Z,14.20
2023-05-02T09:34:11.169Z,14.08
2023-05-02T09:36:41.813Z,14.03
2023-05-02T09:39:14.307Z,13.93
2023-05-02T09:41:47.388Z,13.82
2023-05-02T09:44:23.319Z,13.75
2023-05-02T09:46:56.328Z,13.74
2023-05-02T09:49:45.725Z,13.78
2023-05-02T09:52:18.242Z,13.85
2023-05-02T09:54:51.277Z,13.94
2023-05-02T09:57:22.291Z,14.06
2023-05-02T09:59:58.859Z,14.14
2023-05-02T10:02:37.833Z,14.22
2023-05-02T10:05:10.700Z,14.42
2023-05-02T10:07:43.124Z,14.59
2023-05-02T10:10:18.664Z,14.79
2023-05-02T10:12:54.909Z,15.00
2023-05-02T10:15:26.468Z,15.25
2023-05-02T10:17:59.057Z,15.52
2023-05-02T10:20:32.239Z,15.70
2023-05-02T10:23:03.778Z,15.92
2023-05-02T10:25:35.502Z,16.57
2023-05-02T10:28:05.855Z,17.73
2023-05-02T10:30:35.935Z,18.70
2023-05-02T10:33:07.403Z,19.52
2023-05-02T10:35:37.020Z,20.19
2023-05-02T10:38:10.290Z,20.55
2023-05-02T10:40:40.632Z,20.97
2023-05-02T10:43:14.196Z,21.28
2023-05-02T10:45:44.638Z,21.53
2023-05-02T10:48:27.804Z,21.84
2023-05-02T10:50:58.483Z,21.98
2023-05-02T10:53:37.534Z,22.12
2023-05-02T10:56:08.944Z,22.36
2023-05-02T10:58:41.172Z,22.53
2023-05-02T11:01:27.014Z,22.56
2023-05-02T11:03:57.679Z,22.63
2023-05-02T11:06:28.646Z,22.64
2023-05-02T11:09:17.707Z,22.59
2023-05-02T11:11:55.283Z,22.42
2023-05-02T11:14:28.596Z,22.63
2023-05-02T11:17:01.390Z,22.66
2023-05-02T11:19:52.265Z,22.78
2023-05-02T11:22:22.260Z,23.00
2023-05-02T11:24:53.937Z,22.98
2023-05-02T11:27:33.839Z,22.81
2023-05-02T11:30:07.508Z,22.72
2023-05-02T11:32:56.556Z,22.62
2023-05-02T11:35:41.013Z,22.55
2023-05-02T11:38:19.873Z,22.72
2023-05-02T11:41:20.969Z,22.51
2023-05-02T11:44:05.904Z,22.62
2023-05-02T11:46:38.897Z,22.58
2023-05-02T11:49:12.697Z,22.12
2023-05-02T11:51:45.497Z,21.85
2023-05-02T11:54:23.935Z,21.88
2023-05-02T11:57:43.249Z,22.12
2023-05-02T12:00:46.536Z,22.51
2023-05-02T12:03:35.292Z,22.39
2023-05-02T12:06:13.336Z,22.53
2023-05-02T12:08:45.359Z,22.81
2023-05-02T12:11:16.528Z,22.83
2023-05-02T12:13:47.573Z,22.63
2023-05-02T12:16:18.064Z,22.32
2023-05-02T12:18:49.817Z,21.84
2023-05-02T12:21:21.271Z,21.43
2023-05-02T12:23:57.409Z,21.02
2023-05-02T12:26:29.920Z,20.66
2023-05-02T12:28:59.654Z,20.59
2023-05-02T12:31:31.673Z,20.91
2023-05-02T12:34:01.800Z,21.07
2023-05-02T12:36:31.450Z,21.00
2023-05-02T12:39:04.873Z,20.75
2023-05-02T12:41:35.439Z,20.56
2023-05-02T12:44:05.896Z,20.48
2023-05-02T12:46:38.138Z,20.56
2023-05-02T12:49:14.378Z,20.61
2023-05-02T12:51:53.529Z,20.65
2023-05-02T12:54:22.819Z,20.52
2023-05-02T12:56:52.675Z,20.33
2023-05-02T12:59:30.006Z,20.31
2023-05-02T13:02:01.658Z,20.47
2023-05-02T13:04:35.035Z,20.48
2023-05-02T13:07:05.581Z,20.35
2023-05-02T13:09:36.529Z,20.19
2023-05-02T13:12:06.621Z,20.09
2023-05-02T13:14:35.280Z,20.20
2023-05-02T13:17:06.724Z,20.26
2023-05-02T13:19:35.604Z,20.24
2023-05-02T13:22:07.892Z,20.13
2023-05-02T13:24:40.347Z,20.02
2023-05-02T13:27:11.188Z,19.92
2023-05-02T13:29:41.741Z,19.80
2023-05-02T13:32:12.352Z,19.69
2023-05-02T13:34:41.428Z,19.63
2023-05-02T13:37:12.861Z,19.68
2023-05-02T13:39:41.626Z,19.80
2023-05-02T13:42:14.344Z,19.88
2023-05-02T13:44:48.089Z,20.03
2023-05-02T13:47:18.681Z,20.09
2023-05-02T13:49:48.793Z,20.04
2023-05-02T13:52:18.592Z,19.99
2023-05-02T13:54:50.816Z,19.95
2023-05-02T13:57:20.222Z,19.89
2023-05-02T13:59:52.291Z,19.76
2023-05-02T14:02:21.407Z,19.64
2023-05-02T14:04:55.351Z,19.50
2023-05-02T14:07:24.322Z,19.42
2023-05-02T14:09:54.716Z,19.41
2023-05-02T14:12:23.564Z,19.41
2023-05-02T14:14:53.327Z,19.44
2023-05-02T14:17:25.636Z,19.57
2023-05-02T14:19:56.302Z,19.66
2023-05-02T14:22:28.024Z,19.76
2023-05-02T14:24:58.522Z,19.79
2023-05-02T14:27:27.800Z,19.76
2023-05-02T14:30:01.987Z,19.68
2023-05-02T14:32:35.872Z,19.56
2023-05-02T14:35:05.348Z,19.46
2023-05-02T14:37:38.642Z,19.37
2023-05-02T14:40:11.701Z,19.28
2023-05-02T14:42:43.295Z,19.19
2023-05-02T14:45:12.849Z,19.07
2023-05-02T14:47:42.442Z,18.99
2023-05-02T14:50:11.642Z,18.90
2023-05-02T14:52:40.370Z,18.85
2023-05-02T14:55:11.331Z,18.82
2023-05-02T14:57:43.941Z,18.80
2023-05-02T15:00:21.920Z,18.77
2023-05-02T15:02:51.816Z,18.73
2023-05-02T15:05:47.683Z,18.72
2023-05-02T15:08:24.582Z,18.68
2023-05-02T15:10:57.445Z,18.65
2023-05-02T15:13:26.681Z,18.60
2023-05-02T15:16:11.249Z,18.56
2023-05-02T15:18:40.170Z,18.54
2023-05-02T15:21:21.250Z,18.47
2023-05-02T15:23:51.517Z,18.39
2023-05-02T15:26:20.457Z,18.38
2023-05-02T15:28:50.212Z,18.34
2023-05-02T15:31:21.737Z,18.30
2023-05-02T15:33:56.589Z,18.23
2023-05-02T15:36:36.437Z,18.12
2023-05-02T15:39:07.462Z,18.06
2023-05-02T15:41:37.151Z,18.02
2023-05-02T15:44:18.542Z,17.99
2023-05-02T15:46:49.966Z,17.96
2023-05-02T15:49:18.800Z,17.90
2023-05-02T15:51:52.143Z,17.80
2023-05-02T15:54:46.457Z,17.70
2023-05-02T15:57:15.445Z,17.62
2023-05-02T15:59:44.362Z,17.51
2023-05-02T16:02:13.537Z,17.42
2023-05-02T16:04:43.488Z,17.35
2023-05-02T16:07:12.718Z,17.24
2023-05-02T16:09:43.110Z,17.10
2023-05-02T16:12:15.088Z,16.98
2023-05-02T16:14:45.854Z,16.85
2023-05-02T16:17:15.452Z,16.73
2023-05-02T16:19:44.181Z,16.66
2023-05-02T16:22:18.258Z,16.56
2023-05-02T16:24:47.559Z,16.45
2023-05-02T16:27:17.445Z,16.35
2023-05-02T16:30:08.447Z,16.21
2023-05-02T16:32:40.022Z,16.06
2023-05-02T16:35:13.402Z,15.97
2023-05-02T16:37:58.735Z,15.86
2023-05-02T16:40:28.505Z,15.76
2023-05-02T16:42:58.632Z,15.68
2023-05-02T16:45:31.456Z,15.55
2023-05-02T16:48:27.398Z,15.43
2023-05-02T16:50:57.489Z,15.29
2023-05-02T16:53:29.526Z,15.12
2023-05-02T16:55:59.998Z,14.97
2023-05-02T16:58:34.181Z,14.82
2023-05-02T17:01:05.697Z,14.66
2023-05-02T17:03:34.994Z,14.48
2023-05-02T17:06:04.576Z,14.36
2023-05-02T17:08:35.048Z,14.26
2023-05-02T17:11:05.729Z,14.14
2023-05-02T17:13:37.244Z,14.04
2023-05-02T17:16:08.223Z,13.97
2023-05-02T17:18:41.830Z,13.82
2023-05-02T17:21:10.500Z,13.60
2023-05-02T17:23:44.793Z,13.49
2023-05-02T17:26:17.096Z,13.40
2023-05-02T17:28:48.082Z,13.31
2023-05-02T17:31:31.504Z,13.29
2023-05-02T17:34:30.986Z,13.26
2023-05-02T17:37:00.644Z,13.15
2023-05-02T17:39:34.295Z,13.07
2023-05-02T17:57:30.975Z,12.38
2023-05-02T18:00:01.296Z,12.29
2023-05-02T18:02:31.575Z,12.24
2023-05-02T18:05:05.123Z,12.21
2023-05-02T18:07:37.618Z,12.14
2023-05-02T18:10:10.495Z,12.09
2023-05-02T18:12:42.776Z,12.06
2023-05-02T18:15:16.131Z,11.97
2023-05-02T18:17:51.370Z,11.91
2023-05-02T18:20:23.545Z,11.83
2023-05-02T18:22:58.131Z,11.79
2023-05-02T18:25:27.813Z,11.74
2023-05-02T18:28:02.839Z,11.61
2023-05-02T18:30:44.814Z,11.58
2023-05-02T18:33:26.602Z,11.51
2023-05-02T18:36:02.055Z,11.46
2023-05-02T18:38:46.801Z,11.42
2023-05-02T18:41:34.790Z,11.41
2023-05-02T18:44:20.965Z,11.35
2023-05-02T18:46:52.940Z,11.29
2023-05-02T18:49:26.417Z,11.28
2023-05-02T18:52:00.223Z,11.23
2023-05-02T18:54:48.347Z,11.22
2023-05-02T18:57:41.596Z,11.15
2023-05-02T19:00:17.488Z,11.10
2023-05-02T19:03:22.956Z,11.00
2023-05-02T19:06:02.737Z,10.92
2023-05-02T19:08:33.871Z,10.86
2023-05-02T19:11:06.886Z,10.86
2023-05-02T19:13:39.995Z,10.85
2023-05-02T19:16:14.980Z,10.79
2023-05-02T19:18:44.629Z,10.70
2023-05-02T19:21:16.394Z,10.63
2023-05-02T19:23:46.896Z,10.54
2023-05-02T19:26:24.883Z,10.47
2023-05-02T19:28:58.527Z,10.37
2023-05-02T19:31:29.069Z,10.29
2023-05-02T19:34:04.837Z,10.24
2023-05-02T19:36:46.714Z,10.17
2023-05-02T19:39:17.503Z,10.10
2023-05-02T19:41:51.511Z,10.00
2023-05-02T19:44:23.006Z,9.92
2023-05-02T19:46:53.755Z,9.83
2023-05-02T19:49:28.015Z,9.76
2023-05-02T19:51:59.749Z,9.65
2023-05-02T19:54:31.285Z,9.56
2023-05-02T19:57:05.117Z,9.46
2023-05-02T19:59:38.227Z,9.35
2023-05-02T20:02:14.008Z,9.25
2023-05-02T20:04:45.806Z,9.15
2023-05-02T20:07:17.891Z,9.04
2023-05-02T20:09:48.639Z,8.94
2023-05-02T20:12:20.798Z,8.87
2023-05-02T20:14:56.052Z,8.80
2023-05-02T20:17:46.807Z,8.73
2023-05-02T20:20:17.469Z,8.68
2023-05-02T20:22:46.701Z,8.62
2023-05-02T20:25:16.901Z,8.60
2023-05-02T20:27:48.847Z,8.58
2023-05-02T20:30:19.091Z,8.56
2023-05-02T20:32:47.953Z,8.55
2023-05-02T20:35:17.610Z,8.54
2023-05-02T20:37:47.249Z,8.52
2023-05-02T20:40:16.170Z,8.49
2023-05-02T20:42:45.417Z,8.47
2023-05-02T20:45:16.964Z,8.45
2023-05-02T20:47:47.520Z,8.44
2023-05-02T20:50:20.203Z,8.44
2023-05-02T20:52:54.473Z,8.44
2023-05-02T20:55:25.943Z,8.43
2023-05-02T20:57:57.748Z,8.44
2023-05-02T21:00:27.667Z,8.43
2023-05-02T21:02:57.171Z,8.42
2023-05-02T21:05:27.726Z,8.38
2023-05-02T21:07:56.444Z,8.36
2023-05-02T21:10:30.172Z,8.33
2023-05-02T21:13:00.716Z,8.31
2023-05-02T21:15:31.478Z,8.28
2023-05-02T21:18:05.957Z,8.26
2023-05-02T21:20:38.566Z,8.24
2023-05-02T21:23:07.881Z,8.24
2023-05-02T21:25:36.643Z,8.25
2023-05-02T21:28:06.308Z,8.25
2023-05-02T21:30:36.021Z,8.27
2023-05-02T21:33:04.818Z,8.31
2023-05-02T21:35:35.548Z,8.38
2023-05-02T21:38:04.677Z,8.46
2023-05-02T21:40:35.350Z,8.54
2023-05-02T21:43:05.746Z,8.62
2023-05-02T21:45:37.099Z,8.68
2023-05-02T21:48:07.400Z,8.73
2023-05-02T21:50:40.285Z,8.76
2023-05-02T21:53:11.516Z,8.77
2023-05-02T21:55:42.787Z,8.76
2023-05-02T21:58:15.189Z,8.75
2023-05-02T22:00:44.488Z,8.72
2023-05-02T22:03:16.138Z,8.69
2023-05-02T22:05:45.923Z,8.66
2023-05-02T22:08:16.302Z,8.65
2023-05-02T22:10:49.961Z,8.62
2023-05-02T22:13:21.860Z,8.59
2023-05-02T22:15:51.259Z,8.55
2023-05-02T22:18:20.017Z,8.52
2023-05-02T22:20:49.960Z,8.48
2023-05-02T22:23:22.030Z,8.45
2023-05-02T22:25:51.033Z,8.42
2023-05-02T22:28:22.298Z,8.38
2023-05-02T22:34:23.862Z,8.31
2023-05-02T22:49:10.006Z,8.22
2023-05-02T22:51:41.318Z,8.22
2023-05-02T22:54:22.797Z,8.21
2023-05-02T22:56:52.980Z,8.19
2023-05-02T23:00:19.441Z,8.17
2023-05-02T23:02:48.563Z,8.15
2023-05-02T23:05:21.633Z,8.13
2023-05-02T23:07:51.205Z,8.12
2023-05-02T23:10:24.624Z,8.10
2023-05-02T23:12:56.185Z,8.08
2023-05-02T23:15:26.642Z,8.05
2023-05-02T23:17:57.781Z,8.04
2023-05-02T23:20:29.955Z,8.02
2023-05-02T23:23:00.853Z,8.00
2023-05-02T23:25:31.402Z,7.99
2023-05-02T23:28:01.506Z,7.97
2023-05-02T23:30:31.727Z,7.95
2023-05-02T23:33:03.259Z,7.93
2023-05-02T23:35:32.802Z,7.91
2023-05-02T23:38:05.174Z,7.89
2023-05-02T23:40:35.464Z,7.86
2023-05-02T23:43:07.845Z,7.84
2023-05-02T23:45:37.144Z,7.82
2023-05-02T23:48:07.882Z,7.78
2023-05-02T23:50:38.708Z,7.76
2023-05-02T23:53:11.730Z,7.73
2023-05-02T23:55:41.696Z,7.71
2023-05-02T23:58:12.236Z,7.70
